Time;durP1;ratioP1;P1;durP2;ratioP2;P2;SDS_P1;SDS_P2;PMS_P1;PMS_P2;Temp;Humidity;BMP_temperature;BMP_pressure;BME280_temperature;BME280_humidity;BME280_pressure;Samples;Min_cycle;Max_cycle;Signal;HPM_P1;HPM_P2
2021/07/09 00:01:37;;;;;;;8.08;7.38;;;;;;;21.83;77.06;98787.78;262771;1090;22744;-73
2021/07/09 00:06:43;;;;;;;8.98;8.13;;;;;;;21.74;77.02;98776.32;262945;1090;22749;-74
2021/07/09 00:11:50;;;;;;;9.58;8.68;;;;;;;21.67;77.38;98785.16;262803;1089;25839;-73
2021/07/09 00:16:55;;;;;;;8.68;7.85;;;;;;;21.60;77.36;98783.11;262667;1090;22826;-73
2021/07/09 00:22:00;;;;;;;7.77;7.07;;;;;;;21.56;77.56;98786.91;262813;1089;24326;-73
2021/07/09 00:27:04;;;;;;;8.40;7.60;;;;;;;21.52;77.43;98774.01;262752;1088;22757;-73
2021/07/09 00:32:09;;;;;;;5.78;5.23;;;;;;;21.48;76.91;98772.34;262553;1090;22834;-74
2021/07/09 00:37:13;;;;;;;5.40;4.90;;;;;;;21.44;77.06;98768.77;262860;1088;22783;-74
2021/07/09 00:42:17;;;;;;;5.10;4.70;;;;;;;21.36;76.79;98746.03;262772;1090;22787;-72
2021/07/09 00:47:22;;;;;;;6.70;4.90;;;;;;;21.35;77.10;98741.76;262768;1089;25939;-73
2021/07/09 00:52:25;;;;;;;5.75;5.25;;;;;;;21.33;77.38;98747.54;262857;1090;22811;-72
2021/07/09 00:57:29;;;;;;;6.40;5.63;;;;;;;21.34;77.01;98732.77;262817;1090;23394;-73
2021/07/09 01:02:34;;;;;;;6.03;5.50;;;;;;;21.31;76.92;98716.38;262587;1089;22761;-73
2021/07/09 01:07:44;;;;;;;6.65;5.75;;;;;;;21.29;77.42;98708.55;262854;1089;22772;-73
2021/07/09 01:13:08;;;;;;;7.18;6.18;;;;;;;21.27;76.93;98705.41;262988;1090;22928;-73
2021/07/09 01:18:13;;;;;;;7.03;6.40;;;;;;;21.26;77.37;98687.48;262628;1090;23340;-73
2021/07/09 01:23:20;;;;;;;6.88;6.23;;;;;;;21.21;77.53;98671.45;262728;1089;25855;-73
2021/07/09 01:28:26;;;;;;;8.60;7.23;;;;;;;21.19;77.77;98673.73;262922;1090;22790;-73
2021/07/09 01:33:31;;;;;;;8.20;7.50;;;;;;;21.16;77.84;98661.63;262727;1090;22771;-72
2021/07/09 01:38:35;;;;;;;8.58;7.78;;;;;;;21.15;77.64;98654.63;262977;1088;22773;-72
2021/07/09 01:43:41;;;;;;;8.23;7.47;;;;;;;21.17;77.79;98643.37;262768;1090;22771;-73
2021/07/09 01:48:48;;;;;;;9.35;8.48;;;;;;;21.11;78.00;98647.52;262708;1090;22771;-73
2021/07/09 01:54:12;;;;;;;9.25;8.35;;;;;;;21.01;77.80;98643.45;262748;1089;22902;-73
2021/07/09 01:59:15;;;;;;;11.93;8.33;;;;;;;21.01;78.06;98638.81;262866;1090;22804;-72
2021/07/09 02:04:18;;;;;;;10.93;9.20;;;;;;;21.02;78.24;98655.93;262809;1090;22760;-74
2021/07/09 02:09:22;;;;;;;10.43;9.43;;;;;;;21.03;78.57;98635.73;262784;1090;25967;-74
2021/07/09 02:14:26;;;;;;;9.97;8.97;;;;;;;21.00;78.64;98642.67;262894;1088;24418;-73
2021/07/09 02:19:30;;;;;;;11.10;10.00;;;;;;;20.94;78.48;98625.05;262743;1089;26191;-73
2021/07/09 02:24:34;;;;;;;12.10;11.00;;;;;;;20.94;78.54;98627.77;262787;1089;22754;-73
2021/07/09 02:29:40;;;;;;;11.70;10.58;;;;;;;21.00;79.11;98620.13;262872;1089;22765;-73
2021/07/09 02:34:46;;;;;;;12.60;11.33;;;;;;;20.99;79.00;98605.70;262564;1088;22841;-73
2021/07/09 02:39:51;;;;;;;12.95;11.75;;;;;;;21.00;79.20;98614.67;262736;1090;26104;-73
2021/07/09 02:44:54;;;;;;;13.35;11.93;;;;;;;20.98;78.94;98603.34;262753;1089;22761;-73
2021/07/09 02:49:57;;;;;;;13.90;12.00;;;;;;;20.97;79.22;98605.29;262511;1088;22827;-74
2021/07/09 02:55:03;;;;;;;14.98;13.40;;;;;;;20.95;79.25;98602.13;262621;1089;25973;-73
2021/07/09 03:00:15;;;;;;;16.70;15.10;;;;;;;20.99;79.21;98607.64;262809;1090;22759;-73
2021/07/09 03:05:44;;;;;;;17.85;16.05;;;;;;;21.02;79.57;98612.36;262448;1089;22784;-74
2021/07/09 03:10:48;;;;;;;18.40;15.75;;;;;;;21.14;79.75;98641.34;262819;1089;22743;-73
2021/07/09 03:15:52;;;;;;;16.98;15.10;;;;;;;21.29;80.25;98645.11;262833;1089;22813;-74
2021/07/09 03:20:57;;;;;;;15.73;14.23;;;;;;;21.46;80.08;98639.19;262787;1089;22766;-74
2021/07/09 03:26:00;;;;;;;17.13;15.43;;;;;;;21.62;79.91;98635.56;262409;1090;23344;-73
2021/07/09 03:31:04;;;;;;;13.75;12.45;;;;;;;21.63;79.10;98635.20;262836;1090;22777;-73
2021/07/09 03:36:27;;;;;;;15.15;13.65;;;;;;;21.47;78.04;98631.79;262568;1090;22770;-73
2021/07/09 03:41:48;;;;;;;15.53;13.93;;;;;;;21.49;78.43;98629.47;262659;1090;25457;-72
2021/07/09 03:46:57;;;;;;;13.30;11.78;;;;;;;21.56;78.60;98626.11;262718;1089;22902;-74
2021/07/09 03:52:01;;;;;;;12.90;11.70;;;;;;;21.81;78.52;98634.66;262737;1090;22729;-73
2021/07/09 03:57:04;;;;;;;13.60;12.30;;;;;;;22.11;78.19;98648.34;262944;1089;22859;-76
2021/07/09 04:02:08;;;;;;;14.07;12.67;;;;;;;22.52;77.90;98642.27;262381;1090;22791;-73
2021/07/09 04:07:12;;;;;;;14.30;12.90;;;;;;;22.92;77.54;98637.23;262490;1089;22791;-72
2021/07/09 04:12:17;;;;;;;14.58;13.20;;;;;;;23.07;75.95;98649.91;262697;1090;22780;-73
2021/07/09 04:17:24;;;;;;;14.00;12.63;;;;;;;23.11;75.70;98655.39;262860;1089;22808;-73
2021/07/09 04:22:40;;;;;;;15.45;13.65;;;;;;;23.10;75.39;98741.23;262357;1089;22815;-72
2021/07/09 04:27:43;;;;;;;14.20;12.75;;;;;;;22.82;74.92;98724.16;262804;1089;22959;-74
2021/07/09 04:32:46;;;;;;;13.93;12.48;;;;;;;22.56;75.53;98812.34;262479;1090;22737;-73
2021/07/09 04:37:50;;;;;;;12.35;11.13;;;;;;;22.11;75.29;98760.19;262385;1090;22864;-74
2021/07/09 04:42:57;;;;;;;15.45;12.40;;;;;;;21.99;76.41;98813.00;262706;1089;22979;-72
2021/07/09 04:48:10;;;;;;;13.90;12.50;;;;;;;21.83;76.50;98806.88;262395;1090;23227;-73
2021/07/09 04:54:17;;;;;;;12.53;10.80;;;;;;;21.70;76.95;98793.41;262759;1090;22858;-73
2021/07/09 04:59:23;;;;;;;12.73;11.13;;;;;;;21.81;77.29;98800.98;262394;1089;22834;-73
2021/07/09 05:04:28;;;;;;;10.95;9.85;;;;;;;21.91;77.42;98775.05;262725;1090;22750;-73
2021/07/09 05:09:32;;;;;;;12.25;9.60;;;;;;;22.20;77.26;98800.84;262773;1090;24323;-72
2021/07/09 05:14:35;;;;;;;11.68;9.18;;;;;;;22.46;76.44;98791.92;262768;1089;22808;-72
2021/07/09 05:19:39;;;;;;;8.10;7.05;;;;;;;22.87;75.95;98794.84;262352;1088;22819;-74
2021/07/09 05:24:42;;;;;;;8.25;6.10;;;;;;;23.22;74.49;98785.53;262782;1090;22763;-75
2021/07/09 05:29:46;;;;;;;5.83;4.40;;;;;;;23.58;72.76;98761.28;262942;1089;22831;-73
2021/07/09 05:35:03;;;;;;;5.63;3.75;;;;;;;23.91;71.48;98748.72;262793;1088;22789;-73
2021/07/09 05:40:43;;;;;;;3.33;3.03;;;;;;;24.23;69.86;98728.22;262999;1088;22962;-75
2021/07/09 05:46:04;;;;;;;;;;;;;;;;;;;;;
2021/07/09 05:51:08;;;;;;;3.20;2.73;;;;;;;24.56;66.69;98704.56;263080;1089;22840;-74
2021/07/09 05:56:20;;;;;;;6.80;2.90;;;;;;;24.68;66.87;98700.71;263330;1088;22874;-75
2021/07/09 06:01:44;;;;;;;3.93;2.70;;;;;;;24.66;65.59;98687.41;264838;1089;22786;-76
2021/07/09 06:07:12;;;;;;;3.68;3.25;;;;;;;24.47;65.03;98701.38;263739;1088;22872;-73
2021/07/09 06:12:17;;;;;;;2.38;2.18;;;;;;;24.43;65.57;98693.94;263589;1089;22835;-74
2021/07/09 06:17:24;;;;;;;3.25;2.20;;;;;;;24.51;64.89;98685.75;263135;1090;22839;-72
2021/07/09 06:22:28;;;;;;;3.80;2.08;;;;;;;24.51;64.08;98672.86;263379;1090;23369;-74
2021/07/09 06:27:35;;;;;;;2.93;2.17;;;;;;;24.46;63.91;98665.01;263410;1089;25986;-73
2021/07/09 06:32:38;;;;;;;2.90;1.30;;;;;;;24.60;64.21;98669.77;263353;1089;22757;-73
2021/07/09 06:37:59;;;;;;;1.65;0.90;;;;;;;24.83;63.49;98649.52;263836;1088;26321;-74
2021/07/09 06:43:25;;;;;;;1.83;1.15;;;;;;;25.00;62.79;98629.61;263524;1088;22787;-75
2021/07/09 06:49:17;;;;;;;7.85;1.43;;;;;;;25.22;62.45;98613.17;263005;1090;22882;-75
2021/07/09 06:54:22;;;;;;;3.25;1.40;;;;;;;25.37;62.00;98584.61;263289;1089;22759;-74
2021/07/09 06:59:29;;;;;;;2.08;1.50;;;;;;;25.43;61.37;98585.00;263039;1088;22789;-73
2021/07/09 07:04:56;;;;;;;1.75;1.05;;;;;;;25.61;61.43;98585.75;263265;1090;22767;-75
2021/07/09 07:10:31;;;;;;;2.13;1.33;;;;;;;25.72;60.66;98585.74;263194;1089;22754;-74
2021/07/09 07:15:42;;;;;;;2.70;1.75;;;;;;;25.86;60.79;98606.88;262712;1089;24031;-73
2021/07/09 07:20:54;;;;;;;1.63;1.50;;;;;;;26.04;60.46;98595.12;263083;1090;26372;-74
2021/07/09 07:25:58;;;;;;;3.15;1.98;;;;;;;26.14;60.33;98583.31;263210;1090;22807;-74
2021/07/09 07:31:02;;;;;;;2.80;1.75;;;;;;;26.25;60.06;98594.25;263163;1089;22833;-74
2021/07/09 07:36:26;;;;;;;3.15;2.50;;;;;;;26.40;60.35;98583.97;262784;1088;22924;-74
2021/07/09 07:41:30;;;;;;;3.10;2.80;;;;;;;26.54;60.26;98588.61;263240;1089;22891;-73
2021/07/09 07:47:17;;;;;;;;;;;;;;;;;;;;;
2021/07/09 07:53:20;;;;;;;8.78;4.23;;;;;;;26.89;59.76;98597.85;263239;1090;23217;-73
2021/07/09 07:59:03;;;;;;;4.68;4.25;;;;;;;27.14;59.98;98598.47;263278;1088;22924;-73
2021/07/09 08:04:58;;;;;;;;;;;;;;;;;;;;;
2021/07/09 08:10:48;;;;;;;6.98;5.95;;;;;;;28.07;58.81;98620.84;262955;1089;22860;-75
2021/07/09 08:16:06;;;;;;;9.17;8.27;;;;;;;28.41;58.00;98595.25;262625;1089;25810;-74
2021/07/09 08:21:46;;;;;;;11.03;10.08;;;;;;;28.63;57.74;98592.26;262799;1090;22894;-75
2021/07/09 08:26:50;;;;;;;12.08;10.88;;;;;;;28.76;56.63;98590.48;263102;1089;27517;-74
2021/07/09 08:31:58;;;;;;;14.13;12.25;;;;;;;28.76;56.11;98618.03;262669;1089;23924;-76
2021/07/09 08:37:05;;;;;;;13.48;12.28;;;;;;;28.90;55.70;98624.55;263106;1090;22755;-73
2021/07/09 08:42:21;;;;;;;12.63;11.53;;;;;;;29.25;55.92;98620.48;262878;1089;22915;-74
2021/07/09 08:47:47;;;;;;;13.73;12.48;;;;;;;29.43;55.33;98622.95;263078;1089;22757;-74
2021/07/09 08:53:01;;;;;;;15.65;12.50;;;;;;;29.62;54.99;98637.22;262972;1089;22918;-74
2021/07/09 08:58:18;;;;;;;14.70;13.15;;;;;;;29.93;54.33;98637.13;263342;1089;22912;-74
2021/07/09 09:03:35;;;;;;;12.33;11.23;;;;;;;29.94;53.28;98641.42;263405;1088;25329;-75
2021/07/09 09:08:39;;;;;;;12.77;11.57;;;;;;;29.89;52.32;98650.21;263171;1088;25858;-74
2021/07/09 09:13:47;;;;;;;12.33;11.10;;;;;;;29.93;52.27;98651.70;263291;1090;24368;-73
2021/07/09 09:19:02;;;;;;;12.55;11.25;;;;;;;29.98;52.27;98653.18;262812;1089;22762;-73
2021/07/09 09:24:06;;;;;;;11.28;10.23;;;;;;;30.06;51.57;98651.84;262753;1090;22886;-73
2021/07/09 09:29:30;;;;;;;12.08;10.75;;;;;;;30.05;51.72;98636.47;263353;1090;22784;-73
2021/07/09 09:34:45;;;;;;;12.93;10.85;;;;;;;30.14;51.84;98647.75;262915;1090;22827;-74
2021/07/09 09:39:49;;;;;;;11.13;9.95;;;;;;;30.13;51.43;98635.13;263086;1090;23408;-73
2021/07/09 09:45:02;;;;;;;12.58;11.30;;;;;;;29.83;51.64;98622.28;263334;1089;22962;-75
2021/07/09 09:50:27;;;;;;;12.73;11.43;;;;;;;29.51;52.74;98602.33;263259;1088;22791;-75
2021/07/09 09:55:44;;;;;;;12.10;10.83;;;;;;;29.16;53.19;98593.42;263075;1088;22931;-75
2021/07/09 10:00:58;;;;;;;11.23;10.20;;;;;;;28.87;53.54;98561.99;263113;1089;26222;-75
2021/07/09 10:06:08;;;;;;;11.60;10.40;;;;;;;28.54;54.78;98556.13;263008;1089;22816;-75
2021/07/09 10:11:15;;;;;;;11.78;10.68;;;;;;;28.48;56.74;98559.34;263045;1089;22913;-74
2021/07/09 10:16:21;;;;;;;11.07;9.70;;;;;;;28.46;56.96;98553.48;262896;1088;22780;-74
2021/07/09 10:21:37;;;;;;;10.23;9.17;;;;;;;28.50;57.60;98545.18;263621;1090;22857;-75
2021/07/09 10:26:55;;;;;;;8.60;7.80;;;;;;;28.97;58.10;98534.23;264016;1089;22848;-74
2021/07/09 10:32:01;;;;;;;22.08;18.30;;;;;;;29.21;56.08;98531.48;263853;1089;22757;-74
2021/07/09 10:37:18;;;;;;;8.60;7.53;;;;;;;29.36;55.91;98538.33;264062;1089;22788;-76
2021/07/09 10:42:28;;;;;;;6.08;5.50;;;;;;;29.57;54.81;98536.39;264139;1089;22858;-74
2021/07/09 10:48:09;;;;;;;8.20;7.35;;;;;;;29.65;54.35;98520.49;264229;1089;22731;-75
2021/07/09 10:55:02;;;;;;;;;;;;;;;;;;;;;
2021/07/09 11:06:58;;;;;;;7.80;7.00;;;;;;;31.36;52.08;98543.97;263152;1089;22805;-74
2021/07/09 11:12:07;;;;;;;8.38;7.50;;;;;;;31.50;50.64;98570.50;262994;1089;22827;-73
2021/07/09 11:17:22;;;;;;;20.57;18.47;;;;;;;31.41;50.00;98576.66;263141;1089;22768;-74
2021/07/09 11:22:32;;;;;;;11.30;9.78;;;;;;;31.36;50.77;98597.31;263085;1089;22786;-74
2021/07/09 11:27:44;;;;;;;8.60;7.70;;;;;;;31.29;50.17;98614.10;263179;1089;22779;-75
2021/07/09 11:32:47;;;;;;;10.35;8.80;;;;;;;30.92;50.15;98612.59;263125;1089;22766;-73
2021/07/09 11:37:51;;;;;;;11.05;9.85;;;;;;;30.40;51.38;98594.75;263009;1089;22749;-74
2021/07/09 11:42:55;;;;;;;9.10;8.28;;;;;;;30.12;51.18;98572.04;263230;1090;22765;-74
2021/07/09 11:48:01;;;;;;;17.60;15.98;;;;;;;29.99;51.93;98549.81;263084;1089;22940;-72
2021/07/09 11:53:15;;;;;;;12.90;11.90;;;;;;;29.72;52.03;98547.16;263115;1090;25880;-72
2021/07/09 11:58:22;;;;;;;14.47;13.00;;;;;;;29.05;54.17;98545.94;262992;1089;22858;-72
2021/07/09 12:03:26;;;;;;;19.23;15.95;;;;;;;27.93;56.94;98569.45;263005;1089;22853;-72
2021/07/09 12:08:30;;;;;;;19.23;17.23;;;;;;;27.20;59.91;98579.58;262791;1089;22838;-73
2021/07/09 12:13:33;;;;;;;19.73;17.38;;;;;;;26.75;61.48;98530.84;262665;1090;26043;-74
2021/07/09 12:18:38;;;;;;;19.33;17.53;;;;;;;26.55;63.07;98532.50;263052;1089;22889;-74
2021/07/09 12:23:41;;;;;;;23.15;20.88;;;;;;;26.19;64.41;98517.02;262951;1088;22810;-74
2021/07/09 12:29:00;;;;;;;20.78;18.68;;;;;;;25.90;66.12;98492.41;263029;1089;25945;-75
2021/07/09 12:34:32;;;;;;;16.53;15.08;;;;;;;25.86;66.58;98488.91;262995;1088;22759;-73
2021/07/09 12:39:35;;;;;;;14.58;13.18;;;;;;;26.06;67.02;98516.67;262968;1089;27082;-73
2021/07/09 12:45:11;;;;;;;17.03;15.25;;;;;;;26.39;67.31;98552.22;263075;1089;22729;-73
2021/07/09 12:50:42;;;;;;;12.43;11.33;;;;;;;26.76;67.10;98562.60;262755;1088;22777;-73
2021/07/09 12:55:48;;;;;;;12.25;11.05;;;;;;;27.27;66.62;98546.52;263077;1089;22860;-74
2021/07/09 13:00:57;;;;;;;11.70;10.60;;;;;;;27.82;65.56;98553.05;263057;1089;22783;-75
2021/07/09 13:06:12;;;;;;;11.85;10.75;;;;;;;28.16;64.31;98571.58;263050;1089;22763;-74
2021/07/09 13:11:21;;;;;;;15.03;13.68;;;;;;;28.28;62.60;98572.23;263036;1090;22784;-74
2021/07/09 13:16:56;;;;;;;13.58;12.38;;;;;;;28.19;60.30;98558.17;262855;1089;22915;-75
2021/07/09 13:22:40;;;;;;;14.18;12.90;;;;;;;27.95;59.97;98577.30;262969;1088;26468;-71
2021/07/09 13:28:13;;;;;;;16.10;14.50;;;;;;;27.59;60.04;98607.93;262757;1090;22762;-72
2021/07/09 13:33:16;;;;;;;14.10;12.70;;;;;;;27.23;60.42;98619.23;262761;1089;22777;-72
2021/07/09 13:38:20;;;;;;;15.90;13.48;;;;;;;26.58;64.12;98652.55;262943;1089;23603;-72
2021/07/09 13:43:23;;;;;;;7.78;6.45;;;;;;;24.79;60.87;98629.55;262586;1090;22895;-71
2021/07/09 13:48:41;;;;;;;11.35;10.25;;;;;;;23.82;65.70;98640.78;262819;1088;22932;-72
2021/07/09 13:54:32;;;;;;;;;;;;;;;;;;;;;
2021/07/09 13:59:39;;;;;;;12.20;10.58;;;;;;;24.28;71.21;98631.30;263455;1089;22765;-71
2021/07/09 14:04:42;;;;;;;10.95;9.95;;;;;;;25.03;71.49;98634.30;262953;1089;22962;-72
2021/07/09 14:09:46;;;;;;;10.60;9.05;;;;;;;25.54;69.75;98621.42;262850;1089;24454;-72
2021/07/09 14:15:02;;;;;;;9.05;8.23;;;;;;;26.11;68.93;98617.81;262726;1090;22838;-72
2021/07/09 14:20:07;;;;;;;11.98;10.98;;;;;;;26.50;67.90;98623.55;262764;1090;22763;-73
2021/07/09 14:25:12;;;;;;;11.28;10.18;;;;;;;26.72;66.66;98636.05;262888;1089;22807;-72
2021/07/09 14:30:16;;;;;;;12.08;10.98;;;;;;;26.72;66.27;98625.06;262618;1090;22823;-71
2021/07/09 14:35:20;;;;;;;13.07;11.87;;;;;;;26.81;66.20;98641.09;262696;1090;22761;-73
2021/07/09 14:40:27;;;;;;;12.50;11.40;;;;;;;27.00;66.15;98631.54;263033;1090;22910;-72
2021/07/09 14:45:31;;;;;;;12.80;11.50;;;;;;;27.22;65.56;98623.16;262400;1090;22951;-72
2021/07/09 14:50:35;;;;;;;16.40;14.50;;;;;;;27.37;65.38;98635.64;262459;1090;22959;-73
2021/07/09 14:55:39;;;;;;;15.10;13.73;;;;;;;27.38;64.41;98625.41;262706;1090;24320;-73
2021/07/09 15:00:42;;;;;;;13.48;12.28;;;;;;;27.14;63.97;98627.91;262404;1090;22778;-72
2021/07/09 15:05:46;;;;;;;13.75;12.53;;;;;;;26.60;64.45;98626.25;262756;1089;22776;-73
2021/07/09 15:10:50;;;;;;;14.10;12.70;;;;;;;26.38;65.59;98631.05;262921;1087;24301;-72
2021/07/09 15:16:07;;;;;;;13.08;11.88;;;;;;;26.32;65.85;98621.67;262848;1086;22763;-75
2021/07/09 15:21:31;;;;;;;14.65;13.38;;;;;;;26.12;65.07;98624.08;262981;1087;22773;-73
2021/07/09 15:26:35;;;;;;;14.83;13.43;;;;;;;25.88;65.17;98625.69;262811;1087;22754;-74
2021/07/09 15:31:38;;;;;;;14.20;12.90;;;;;;;25.79;63.67;98637.84;262779;1087;27529;-72
2021/07/09 15:36:45;;;;;;;13.33;12.05;;;;;;;25.71;64.27;98633.55;262694;1087;22793;-73
2021/07/09 15:41:48;;;;;;;16.07;13.67;;;;;;;25.60;64.33;98622.61;262798;1087;22763;-73
2021/07/09 15:46:52;;;;;;;12.53;11.13;;;;;;;25.49;63.89;98629.26;262803;1087;22912;-72
2021/07/09 15:51:56;;;;;;;9.35;8.45;;;;;;;25.21;63.85;98622.56;262734;1087;22790;-73
2021/07/09 15:57:58;;;;;;;8.83;7.70;;;;;;;24.88;63.71;98621.75;262880;1087;22935;-73
2021/07/09 16:03:36;;;;;;;7.13;6.43;;;;;;;24.40;64.28;98626.27;262829;1087;22844;-74
2021/07/09 16:08:40;;;;;;;7.38;6.40;;;;;;;24.23;65.05;98638.71;262714;1087;22921;-73
2021/07/09 16:13:44;;;;;;;5.90;5.30;;;;;;;24.17;65.25;98628.50;262939;1087;22787;-71
2021/07/09 16:18:48;;;;;;;6.95;5.40;;;;;;;24.13;65.48;98627.70;262744;1087;22757;-73
2021/07/09 16:23:53;;;;;;;5.58;5.10;;;;;;;24.07;65.61;98617.11;262752;1087;22993;-73
2021/07/09 16:28:57;;;;;;;14.18;12.68;;;;;;;24.06;65.70;98626.51;262976;1086;24336;-73
2021/07/09 16:34:02;;;;;;;10.70;9.18;;;;;;;24.00;65.80;98644.44;262833;1086;28594;-72
2021/07/09 16:39:06;;;;;;;16.28;14.05;;;;;;;23.87;65.35;98648.64;262738;1085;22847;-73
2021/07/09 16:44:14;;;;;;;7.65;6.75;;;;;;;23.81;65.92;98655.61;262836;1089;22838;-73
2021/07/09 16:49:34;;;;;;;6.50;5.90;;;;;;;23.87;65.84;98665.85;262759;1085;22780;-73
2021/07/09 16:55:34;;;;;;;7.18;6.30;;;;;;;24.02;65.84;98682.35;262741;1087;24303;-73
2021/07/09 17:01:31;;;;;;;4.60;4.15;;;;;;;24.21;64.83;98693.03;262794;1087;22790;-73
2021/07/09 17:06:48;;;;;;;4.18;3.85;;;;;;;24.32;64.09;98701.30;262750;1087;22837;-72
2021/07/09 17:11:53;;;;;;;5.03;4.55;;;;;;;24.46;63.80;98681.44;263011;1087;22847;-73
2021/07/09 17:17:00;;;;;;;3.70;3.40;;;;;;;25.47;63.82;98686.47;262796;1085;25890;-73
2021/07/09 17:22:07;;;;;;;3.50;3.25;;;;;;;26.72;61.64;98688.25;262778;1085;22765;-74
2021/07/09 17:27:32;;;;;;;3.83;3.18;;;;;;;27.43;58.16;98683.51;262771;1087;22785;-74
2021/07/09 17:32:43;;;;;;;3.93;3.55;;;;;;;28.05;55.38;98697.58;262777;1087;22777;-73
2021/07/09 17:37:47;;;;;;;4.78;3.73;;;;;;;28.15;54.64;98696.67;262707;1086;23559;-72
2021/07/09 17:42:51;;;;;;;3.43;3.13;;;;;;;27.72;53.73;98677.78;262721;1085;24449;-72
2021/07/09 17:47:55;;;;;;;6.07;5.37;;;;;;;26.78;54.28;98683.12;262864;1087;22733;-73
2021/07/09 17:52:58;;;;;;;5.18;4.68;;;;;;;25.82;55.75;98684.89;262821;1087;22789;-73
2021/07/09 17:58:03;;;;;;;4.03;3.38;;;;;;;24.98;57.66;98694.95;262836;1087;24112;-73
2021/07/09 18:03:07;;;;;;;4.78;4.38;;;;;;;24.34;59.19;98700.92;262902;1087;22760;-73
2021/07/09 18:08:11;;;;;;;4.28;2.85;;;;;;;23.86;60.42;98707.23;262807;1087;22787;-72
2021/07/09 18:13:15;;;;;;;4.18;3.63;;;;;;;23.49;61.06;98713.55;262988;1087;22821;-73
2021/07/09 18:18:19;;;;;;;3.18;2.88;;;;;;;23.24;61.49;98722.31;262810;1086;22905;-73
2021/07/09 18:23:30;;;;;;;2.10;1.70;;;;;;;22.96;61.40;98720.80;262758;1087;22915;-72
2021/07/09 18:28:34;;;;;;;2.05;1.85;;;;;;;22.81;61.73;98721.80;262863;1085;22943;-73
2021/07/09 18:33:38;;;;;;;1.85;1.75;;;;;;;22.60;61.98;98723.09;262956;1087;24292;-73
2021/07/09 18:38:41;;;;;;;1.17;1.07;;;;;;;22.38;62.21;98725.55;262916;1087;25951;-73
2021/07/09 18:43:45;;;;;;;3.30;1.70;;;;;;;22.22;62.35;98731.13;262758;1087;23136;-72
2021/07/09 18:48:48;;;;;;;1.65;1.53;;;;;;;22.07;62.67;98734.02;262875;1087;22739;-73
2021/07/09 18:53:52;;;;;;;2.60;2.30;;;;;;;21.92;63.27;98750.14;262719;1087;22793;-71
2021/07/09 18:58:56;;;;;;;4.85;3.88;;;;;;;21.77;63.64;98737.42;262918;1087;22760;-73
2021/07/09 19:04:00;;;;;;;3.10;1.48;;;;;;;21.64;64.27;98742.27;262727;1085;22757;-73
2021/07/09 19:09:17;;;;;;;2.45;1.75;;;;;;;21.51;64.46;98747.09;262849;1087;22795;-72
2021/07/09 19:14:40;;;;;;;1.83;1.70;;;;;;;21.41;64.84;98753.92;262726;1086;22780;-73
2021/07/09 19:19:44;;;;;;;5.35;2.20;;;;;;;21.35;65.20;98750.70;262950;1086;28092;-74
2021/07/09 19:24:50;;;;;;;2.87;1.80;;;;;;;21.29;65.58;98751.36;262878;1085;22886;-73
2021/07/09 19:29:54;;;;;;;2.53;2.33;;;;;;;21.24;65.64;98766.06;262859;1087;22769;-71
2021/07/09 19:35:01;;;;;;;4.38;2.60;;;;;;;21.20;66.21;98765.20;262807;1087;25868;-73
2021/07/09 19:40:13;;;;;;;2.73;2.20;;;;;;;21.13;66.20;98779.47;262878;1087;24358;-72
2021/07/09 19:45:19;;;;;;;4.17;3.77;;;;;;;21.02;66.65;98773.80;262891;1087;25980;-72
2021/07/09 19:50:26;;;;;;;3.33;2.48;;;;;;;20.96;66.95;98782.63;262748;1087;22793;-73
2021/07/09 19:55:33;;;;;;;5.00;2.80;;;;;;;20.91;67.34;98800.02;262851;1087;22957;-73
2021/07/09 20:00:37;;;;;;;3.25;2.70;;;;;;;20.84;67.85;98792.48;262771;1087;22793;-72
2021/07/09 20:05:51;;;;;;;3.33;2.20;;;;;;;20.77;68.11;98788.84;263050;1087;22772;-73
2021/07/09 20:10:54;;;;;;;3.43;2.83;;;;;;;20.73;68.08;98780.58;262807;1087;25832;-72
2021/07/09 20:15:59;;;;;;;3.40;2.70;;;;;;;20.65;68.29;98774.18;262821;1087;24773;-73
2021/07/09 20:21:10;;;;;;;3.00;2.60;;;;;;;20.58;68.81;98767.78;262711;1087;22764;-72
2021/07/09 20:26:50;;;;;;;6.48;4.80;;;;;;;20.33;69.24;98766.09;262753;1087;25858;-73
2021/07/09 20:31:54;;;;;;;7.77;3.73;;;;;;;20.10;70.06;98765.15;263052;1087;22759;-73
2021/07/09 20:36:58;;;;;;;3.13;2.70;;;;;;;19.93;70.93;98748.05;262791;1087;25967;-72
2021/07/09 20:42:02;;;;;;;2.80;2.33;;;;;;;19.81;71.07;98748.13;262805;1087;22933;-72
2021/07/09 20:47:06;;;;;;;2.30;1.95;;;;;;;19.70;71.49;98747.05;262734;1087;22780;-73
2021/07/09 20:52:10;;;;;;;3.13;2.20;;;;;;;19.60;71.44;98748.36;262921;1086;22755;-72
2021/07/09 20:57:15;;;;;;;2.13;1.70;;;;;;;19.45;71.52;98747.22;262777;1087;22871;-73
2021/07/09 21:02:19;;;;;;;2.90;1.70;;;;;;;19.46;71.50;98743.34;262823;1086;22767;-73
2021/07/09 21:07:23;;;;;;;1.93;1.33;;;;;;;19.41;71.06;98751.77;262753;1087;22765;-72
2021/07/09 21:12:27;;;;;;;1.80;1.70;;;;;;;19.34;71.19;98759.73;262758;1085;22780;-72
2021/07/09 21:17:35;;;;;;;1.77;1.50;;;;;;;19.24;70.54;98764.52;262781;1087;22906;-73
2021/07/09 21:22:39;;;;;;;1.60;1.50;;;;;;;19.20;70.68;98773.70;262846;1086;22831;-72
2021/07/09 21:27:47;;;;;;;1.10;1.00;;;;;;;19.17;70.63;98780.61;262798;1086;22756;-73
2021/07/09 21:32:51;;;;;;;1.00;0.97;;;;;;;19.12;70.35;98791.70;262709;1087;22783;-73
2021/07/09 21:37:55;;;;;;;1.30;1.10;;;;;;;19.05;70.02;98788.80;262750;1087;22771;-73
2021/07/09 21:43:00;;;;;;;1.20;0.95;;;;;;;18.95;69.98;98809.84;262747;1087;22750;-73
2021/07/09 21:48:05;;;;;;;2.75;1.40;;;;;;;18.85;69.75;98806.81;262986;1087;22816;-71
2021/07/09 21:53:08;;;;;;;2.55;1.95;;;;;;;18.80;69.65;98795.06;262971;1086;22847;-72
2021/07/09 21:58:15;;;;;;;1.10;1.10;;;;;;;18.78;69.82;98802.73;262758;1086;22790;-72
2021/07/09 22:03:29;;;;;;;1.20;0.70;;;;;;;18.74;68.98;98817.34;262768;1087;23193;-73
2021/07/09 22:08:38;;;;;;;0.50;0.50;;;;;;;18.70;68.51;98828.07;262801;1087;24319;-72
2021/07/09 22:13:42;;;;;;;0.60;0.50;;;;;;;18.68;68.07;98838.48;262759;1087;25932;-72
2021/07/09 22:18:46;;;;;;;1.10;0.55;;;;;;;18.64;68.11;98841.08;262710;1087;22861;-72
2021/07/09 22:23:54;;;;;;;0.50;0.45;;;;;;;18.59;67.83;98832.38;262721;1087;24317;-73
2021/07/09 22:29:01;;;;;;;0.63;0.40;;;;;;;18.54;67.65;98835.34;262772;1087;25272;-73
2021/07/09 22:34:05;;;;;;;0.50;0.50;;;;;;;18.47;67.60;98828.55;262714;1087;22752;-73
2021/07/09 22:39:08;;;;;;;0.70;0.40;;;;;;;18.38;67.37;98808.88;262718;1087;27249;-72
2021/07/09 22:44:11;;;;;;;0.40;0.40;;;;;;;18.29;66.91;98795.44;262832;1087;22784;-73
2021/07/09 22:49:15;;;;;;;1.05;0.30;;;;;;;18.21;67.27;98804.47;262805;1085;24480;-73
2021/07/09 22:54:42;;;;;;;;;;;;;;;;;;;;;
2021/07/09 22:59:48;;;;;;;0.50;0.50;;;;;;;18.04;67.63;98823.67;262773;1087;23378;-71
2021/07/09 23:04:52;;;;;;;0.60;0.40;;;;;;;17.94;67.37;98847.36;262761;1087;24320;-73
2021/07/09 23:09:56;;;;;;;0.73;0.40;;;;;;;17.88;67.61;98848.69;262955;1087;22870;-73
2021/07/09 23:15:00;;;;;;;0.40;0.40;;;;;;;17.79;67.98;98831.72;262755;1087;23794;-73
2021/07/09 23:20:10;;;;;;;0.75;0.50;;;;;;;17.69;68.38;98821.31;262805;1087;22837;-73
2021/07/09 23:25:15;;;;;;;0.45;0.38;;;;;;;17.60;68.23;98835.73;262736;1087;25963;-72
2021/07/09 23:30:19;;;;;;;0.50;0.40;;;;;;;17.49;68.53;98839.98;262963;1087;22760;-73
2021/07/09 23:35:41;;;;;;;0.50;0.40;;;;;;;17.41;68.67;98840.84;262792;1087;22760;-73
2021/07/09 23:41:29;;;;;;;0.80;0.50;;;;;;;17.32;68.79;98842.83;262756;1087;24314;-71
2021/07/09 23:46:35;;;;;;;0.85;0.60;;;;;;;17.25;68.89;98843.34;262734;1090;22765;-73
2021/07/09 23:51:39;;;;;;;0.70;0.40;;;;;;;17.22;68.99;98850.24;262905;1087;25966;-73
2021/07/09 23:56:46;;;;;;;0.65;0.65;;;;;;;17.16;69.26;98846.13;262744;1087;22941;-73
